sensor_id;sensor_type;location;lat;lon;timestamp;P1;durP1;ratioP1;P2;durP2;ratioP2
52798;SDS011;38667;42.872;74.622;2022-09-03T00:00:06;24.20;;;6.07;;
52798;SDS011;38667;42.872;74.622;2022-09-03T00:02:37;37.92;;;6.63;;
52798;SDS011;38667;42.872;74.622;2022-09-03T00:05:07;30.05;;;6.57;;
52798;SDS011;38667;42.872;74.622;2022-09-03T00:07:42;24.30;;;6.60;;
52798;SDS011;38667;42.872;74.622;2022-09-03T00:10:18;22.60;;;5.78;;
52798;SDS011;38667;42.872;74.622;2022-09-03T00:12:50;17.70;;;6.03;;
52798;SDS011;38667;42.872;74.622;2022-09-03T00:15:21;15.80;;;5.43;;
52798;SDS011;38667;42.872;74.622;2022-09-03T00:17:52;18.52;;;5.60;;
52798;SDS011;38667;42.872;74.622;2022-09-03T00:20:22;22.17;;;5.45;;
52798;SDS011;38667;42.872;74.622;2022-09-03T00:22:53;18.55;;;5.82;;
52798;SDS011;38667;42.872;74.622;2022-09-03T00:25:22;11.90;;;5.13;;
52798;SDS011;38667;42.872;74.622;2022-09-03T00:27:52;10.30;;;4.97;;
52798;SDS011;38667;42.872;74.622;2022-09-03T00:30:21;15.32;;;5.03;;
52798;SDS011;38667;42.872;74.622;2022-09-03T00:32:48;14.75;;;4.82;;
52798;SDS011;38667;42.872;74.622;2022-09-03T00:35:19;15.75;;;4.95;;
52798;SDS011;38667;42.872;74.622;2022-09-03T00:37:51;15.38;;;4.97;;
52798;SDS011;38667;42.872;74.622;2022-09-03T00:40:21;19.65;;;5.03;;
52798;SDS011;38667;42.872;74.622;2022-09-03T00:43:05;15.18;;;4.70;;
52798;SDS011;38667;42.872;74.622;2022-09-03T00:45:41;12.82;;;4.43;;
52798;SDS011;38667;42.872;74.622;2022-09-03T00:48:16;12.52;;;4.78;;
52798;SDS011;38667;42.872;74.622;2022-09-03T00:50:50;16.08;;;4.75;;
52798;SDS011;38667;42.872;74.622;2022-09-03T00:53:26;15.85;;;4.90;;
52798;SDS011;38667;42.872;74.622;2022-09-03T00:56:02;12.63;;;4.35;;
52798;SDS011;38667;42.872;74.622;2022-09-03T00:58:43;13.40;;;4.80;;
52798;SDS011;38667;42.872;74.622;2022-09-03T01:01:21;20.70;;;5.47;;
52798;SDS011;38667;42.872;74.622;2022-09-03T01:04:11;10.35;;;4.75;;
52798;SDS011;38667;42.872;74.622;2022-09-03T01:06:52;19.98;;;5.22;;
52798;SDS011;38667;42.872;74.622;2022-09-03T01:09:26;17.33;;;5.13;;
52798;SDS011;38667;42.872;74.622;2022-09-03T01:12:04;18.90;;;4.90;;
52798;SDS011;38667;42.872;74.622;2022-09-03T01:14:41;17.90;;;5.20;;
52798;SDS011;38667;42.872;74.622;2022-09-03T01:17:16;17.73;;;4.90;;
52798;SDS011;38667;42.872;74.622;2022-09-03T01:25:43;17.63;;;4.95;;
52798;SDS011;38667;42.872;74.622;2022-09-03T01:28:24;17.70;;;5.07;;
52798;SDS011;38667;42.872;74.622;2022-09-03T01:31:08;18.35;;;5.28;;
52798;SDS011;38667;42.872;74.622;2022-09-03T01:33:49;15.07;;;4.85;;
52798;SDS011;38667;42.872;74.622;2022-09-03T01:36:24;10.15;;;4.53;;
52798;SDS011;38667;42.872;74.622;2022-09-03T01:38:57;21.20;;;5.85;;
52798;SDS011;38667;42.872;74.622;2022-09-03T01:41:28;17.35;;;5.22;;
52798;SDS011;38667;42.872;74.622;2022-09-03T01:44:05;19.95;;;5.40;;
52798;SDS011;38667;42.872;74.622;2022-09-03T01:46:38;16.33;;;5.55;;
52798;SDS011;38667;42.872;74.622;2022-09-03T01:49:10;19.70;;;5.28;;
52798;SDS011;38667;42.872;74.622;2022-09-03T01:51:42;14.25;;;5.35;;
52798;SDS011;38667;42.872;74.622;2022-09-03T01:54:14;15.23;;;5.65;;
52798;SDS011;38667;42.872;74.622;2022-09-03T01:57:04;16.92;;;5.80;;
52798;SDS011;38667;42.872;74.622;2022-09-03T01:59:45;11.57;;;5.07;;
52798;SDS011;38667;42.872;74.622;2022-09-03T02:02:17;17.45;;;6.05;;
52798;SDS011;38667;42.872;74.622;2022-09-03T02:04:54;29.23;;;7.00;;
52798;SDS011;38667;42.872;74.622;2022-09-03T02:07:23;17.30;;;6.32;;
52798;SDS011;38667;42.872;74.622;2022-09-03T02:09:51;23.42;;;7.38;;
52798;SDS011;38667;42.872;74.622;2022-09-03T02:12:17;21.08;;;7.45;;
52798;SDS011;38667;42.872;74.622;2022-09-03T02:14:45;17.80;;;7.57;;
52798;SDS011;38667;42.872;74.622;2022-09-03T02:17:12;20.15;;;8.02;;
52798;SDS011;38667;42.872;74.622;2022-09-03T02:19:38;20.73;;;7.72;;
52798;SDS011;38667;42.872;74.622;2022-09-03T02:22:05;23.27;;;6.78;;
52798;SDS011;38667;42.872;74.622;2022-09-03T02:24:31;17.15;;;7.20;;
52798;SDS011;38667;42.872;74.622;2022-09-03T02:26:57;20.88;;;7.68;;
52798;SDS011;38667;42.872;74.622;2022-09-03T02:29:24;17.55;;;6.88;;
52798;SDS011;38667;42.872;74.622;2022-09-03T02:31:52;24.40;;;8.60;;
52798;SDS011;38667;42.872;74.622;2022-09-03T02:34:18;15.32;;;7.03;;
52798;SDS011;38667;42.872;74.622;2022-09-03T02:36:45;11.65;;;6.93;;
52798;SDS011;38667;42.872;74.622;2022-09-03T02:39:12;16.33;;;6.68;;
52798;SDS011;38667;42.872;74.622;2022-09-03T02:41:39;16.67;;;6.72;;
52798;SDS011;38667;42.872;74.622;2022-09-03T02:44:07;12.60;;;6.50;;
52798;SDS011;38667;42.872;74.622;2022-09-03T02:46:38;16.10;;;6.50;;
52798;SDS011;38667;42.872;74.622;2022-09-03T02:49:06;16.88;;;6.75;;
52798;SDS011;38667;42.872;74.622;2022-09-03T02:51:33;19.02;;;7.82;;
52798;SDS011;38667;42.872;74.622;2022-09-03T02:54:00;19.08;;;6.97;;
52798;SDS011;38667;42.872;74.622;2022-09-03T02:56:26;15.32;;;7.60;;
52798;SDS011;38667;42.872;74.622;2022-09-03T02:58:53;13.40;;;7.53;;
52798;SDS011;38667;42.872;74.622;2022-09-03T03:01:19;13.38;;;7.30;;
52798;SDS011;38667;42.872;74.622;2022-09-03T03:03:46;18.70;;;7.93;;
52798;SDS011;38667;42.872;74.622;2022-09-03T03:06:14;17.27;;;8.15;;
52798;SDS011;38667;42.872;74.622;2022-09-03T03:08:40;15.52;;;7.47;;
52798;SDS011;38667;42.872;74.622;2022-09-03T03:11:06;17.45;;;7.30;;
52798;SDS011;38667;42.872;74.622;2022-09-03T03:13:33;15.93;;;7.03;;
52798;SDS011;38667;42.872;74.622;2022-09-03T03:15:59;17.08;;;7.03;;
52798;SDS011;38667;42.872;74.622;2022-09-03T03:18:27;14.82;;;6.95;;
52798;SDS011;38667;42.872;74.622;2022-09-03T03:20:54;16.60;;;8.60;;
52798;SDS011;38667;42.872;74.622;2022-09-03T03:23:22;16.60;;;8.23;;
52798;SDS011;38667;42.872;74.622;2022-09-03T03:25:48;14.05;;;7.57;;
52798;SDS011;38667;42.872;74.622;2022-09-03T03:28:14;15.90;;;6.80;;
52798;SDS011;38667;42.872;74.622;2022-09-03T03:30:41;10.77;;;5.50;;
52798;SDS011;38667;42.872;74.622;2022-09-03T03:33:07;15.40;;;5.38;;
52798;SDS011;38667;42.872;74.622;2022-09-03T03:35:34;13.73;;;5.63;;
52798;SDS011;38667;42.872;74.622;2022-09-03T03:38:01;15.75;;;5.20;;
52798;SDS011;38667;42.872;74.622;2022-09-03T03:40:28;14.15;;;5.68;;
52798;SDS011;38667;42.872;74.622;2022-09-03T03:42:56;12.45;;;5.55;;
52798;SDS011;38667;42.872;74.622;2022-09-03T03:45:23;15.32;;;6.38;;
52798;SDS011;38667;42.872;74.622;2022-09-03T03:47:49;15.02;;;5.30;;
52798;SDS011;38667;42.872;74.622;2022-09-03T03:50:15;17.38;;;5.18;;
52798;SDS011;38667;42.872;74.622;2022-09-03T03:52:42;19.10;;;5.38;;
52798;SDS011;38667;42.872;74.622;2022-09-03T03:55:08;8.00;;;4.20;;
52798;SDS011;38667;42.872;74.622;2022-09-03T03:57:36;8.38;;;3.90;;
52798;SDS011;38667;42.872;74.622;2022-09-03T04:00:03;13.05;;;4.28;;
52798;SDS011;38667;42.872;74.622;2022-09-03T04:02:30;10.95;;;4.72;;
52798;SDS011;38667;42.872;74.622;2022-09-03T04:04:56;11.25;;;4.47;;
52798;SDS011;38667;42.872;74.622;2022-09-03T04:07:22;9.60;;;4.40;;
52798;SDS011;38667;42.872;74.622;2022-09-03T04:09:48;9.38;;;4.47;;
52798;SDS011;38667;42.872;74.622;2022-09-03T04:12:15;9.85;;;3.97;;
52798;SDS011;38667;42.872;74.622;2022-09-03T04:14:43;11.25;;;4.47;;
52798;SDS011;38667;42.872;74.622;2022-09-03T04:17:09;7.72;;;4.18;;
52798;SDS011;38667;42.872;74.622;2022-09-03T04:19:35;9.18;;;4.13;;
52798;SDS011;38667;42.872;74.622;2022-09-03T04:22:01;10.65;;;4.18;;
52798;SDS011;38667;42.872;74.622;2022-09-03T04:24:28;10.68;;;4.57;;
52798;SDS011;38667;42.872;74.622;2022-09-03T04:26:54;11.15;;;4.57;;
52798;SDS011;38667;42.872;74.622;2022-09-03T04:29:20;13.60;;;4.50;;
52798;SDS011;38667;42.872;74.622;2022-09-03T04:31:48;14.75;;;4.80;;
52798;SDS011;38667;42.872;74.622;2022-09-03T04:34:14;7.82;;;4.68;;
52798;SDS011;38667;42.872;74.622;2022-09-03T04:36:41;10.88;;;4.38;;
52798;SDS011;38667;42.872;74.622;2022-09-03T04:39:07;9.38;;;4.22;;
52798;SDS011;38667;42.872;74.622;2022-09-03T04:41:33;8.55;;;3.90;;
52798;SDS011;38667;42.872;74.622;2022-09-03T04:43:59;10.45;;;3.70;;
52798;SDS011;38667;42.872;74.622;2022-09-03T04:46:26;9.85;;;3.80;;
52798;SDS011;38667;42.872;74.622;2022-09-03T04:48:55;8.80;;;4.10;;
52798;SDS011;38667;42.872;74.622;2022-09-03T04:51:22;9.35;;;3.63;;
52798;SDS011;38667;42.872;74.622;2022-09-03T04:53:52;7.38;;;3.72;;
52798;SDS011;38667;42.872;74.622;2022-09-03T04:56:21;9.98;;;3.83;;
52798;SDS011;38667;42.872;74.622;2022-09-03T04:58:52;15.00;;;3.40;;
52798;SDS011;38667;42.872;74.622;2022-09-03T05:01:21;7.13;;;3.65;;
52798;SDS011;38667;42.872;74.622;2022-09-03T05:03:48;11.77;;;3.00;;
52798;SDS011;38667;42.872;74.622;2022-09-03T05:06:16;13.20;;;3.50;;
52798;SDS011;38667;42.872;74.622;2022-09-03T05:08:42;10.25;;;3.63;;
52798;SDS011;38667;42.872;74.622;2022-09-03T05:11:12;10.20;;;2.72;;
52798;SDS011;38667;42.872;74.622;2022-09-03T05:13:38;2.30;;;1.83;;
52798;SDS011;38667;42.872;74.622;2022-09-03T05:16:06;4.35;;;1.65;;
52798;SDS011;38667;42.872;74.622;2022-09-03T05:18:34;6.50;;;2.10;;
52798;SDS011;38667;42.872;74.622;2022-09-03T05:21:01;5.30;;;1.77;;
52798;SDS011;38667;42.872;74.622;2022-09-03T05:23:30;4.07;;;2.40;;
52798;SDS011;38667;42.872;74.622;2022-09-03T05:26:00;5.30;;;2.20;;
52798;SDS011;38667;42.872;74.622;2022-09-03T05:28:29;10.57;;;2.70;;
52798;SDS011;38667;42.872;74.622;2022-09-03T05:30:59;7.13;;;2.38;;
52798;SDS011;38667;42.872;74.622;2022-09-03T05:33:25;5.25;;;2.45;;
52798;SDS011;38667;42.872;74.622;2022-09-03T05:35:52;6.55;;;2.30;;
52798;SDS011;38667;42.872;74.622;2022-09-03T05:38:18;4.10;;;2.10;;
52798;SDS011;38667;42.872;74.622;2022-09-03T05:40:46;6.85;;;2.50;;
52798;SDS011;38667;42.872;74.622;2022-09-03T05:43:12;10.20;;;3.00;;
52798;SDS011;38667;42.872;74.622;2022-09-03T05:45:39;11.13;;;2.63;;
52798;SDS011;38667;42.872;74.622;2022-09-03T05:48:05;8.63;;;2.40;;
52798;SDS011;38667;42.872;74.622;2022-09-03T05:50:31;4.78;;;2.67;;
52798;SDS011;38667;42.872;74.622;2022-09-03T05:52:57;7.25;;;2.58;;
52798;SDS011;38667;42.872;74.622;2022-09-03T05:55:24;5.80;;;2.45;;
52798;SDS011;38667;42.872;74.622;2022-09-03T05:57:52;5.32;;;2.35;;
52798;SDS011;38667;42.872;74.622;2022-09-03T06:00:18;10.10;;;2.88;;
52798;SDS011;38667;42.872;74.622;2022-09-03T06:02:48;6.78;;;2.70;;
52798;SDS011;38667;42.872;74.622;2022-09-03T06:05:15;8.45;;;3.17;;
52798;SDS011;38667;42.872;74.622;2022-09-03T06:07:41;7.03;;;3.10;;
52798;SDS011;38667;42.872;74.622;2022-09-03T06:10:08;6.22;;;3.50;;
52798;SDS011;38667;42.872;74.622;2022-09-03T06:12:34;7.07;;;3.58;;
52798;SDS011;38667;42.872;74.622;2022-09-03T06:15:02;10.10;;;3.47;;
52798;SDS011;38667;42.872;74.622;2022-09-03T06:17:29;8.50;;;3.60;;
52798;SDS011;38667;42.872;74.622;2022-09-03T06:19:55;7.47;;;3.08;;
52798;SDS011;38667;42.872;74.622;2022-09-03T06:22:21;9.35;;;3.35;;
52798;SDS011;38667;42.872;74.622;2022-09-03T06:24:48;6.30;;;3.42;;
52798;SDS011;38667;42.872;74.622;2022-09-03T06:27:14;18.85;;;4.07;;
52798;SDS011;38667;42.872;74.622;2022-09-03T06:29:40;13.48;;;7.20;;
52798;SDS011;38667;42.872;74.622;2022-09-03T06:32:08;10.65;;;5.30;;
52798;SDS011;38667;42.872;74.622;2022-09-03T06:34:35;9.80;;;4.82;;
52798;SDS011;38667;42.872;74.622;2022-09-03T06:37:01;11.57;;;5.43;;
52798;SDS011;38667;42.872;74.622;2022-09-03T06:39:27;9.70;;;4.90;;
52798;SDS011;38667;42.872;74.622;2022-09-03T06:41:53;13.23;;;5.75;;
52798;SDS011;38667;42.872;74.622;2022-09-03T06:44:20;13.35;;;5.82;;
52798;SDS011;38667;42.872;74.622;2022-09-03T06:46:46;9.73;;;4.65;;
52798;SDS011;38667;42.872;74.622;2022-09-03T06:49:14;10.70;;;3.58;;
52798;SDS011;38667;42.872;74.622;2022-09-03T06:51:40;8.20;;;4.15;;
52798;SDS011;38667;42.872;74.622;2022-09-03T06:54:07;8.07;;;3.58;;
52798;SDS011;38667;42.872;74.622;2022-09-03T06:56:35;11.45;;;4.05;;
52798;SDS011;38667;42.872;74.622;2022-09-03T06:59:03;11.48;;;3.40;;
52798;SDS011;38667;42.872;74.622;2022-09-03T07:01:31;8.77;;;3.47;;
52798;SDS011;38667;42.872;74.622;2022-09-03T07:03:59;8.52;;;3.60;;
52798;SDS011;38667;42.872;74.622;2022-09-03T07:06:28;7.97;;;3.78;;
52798;SDS011;38667;42.872;74.622;2022-09-03T07:08:55;8.30;;;3.20;;
52798;SDS011;38667;42.872;74.622;2022-09-03T07:11:22;5.90;;;2.95;;
52798;SDS011;38667;42.872;74.622;2022-09-03T07:13:49;5.22;;;2.78;;
52798;SDS011;38667;42.872;74.622;2022-09-03T07:16:17;6.70;;;3.00;;
52798;SDS011;38667;42.872;74.622;2022-09-03T07:18:45;7.18;;;3.00;;
52798;SDS011;38667;42.872;74.622;2022-09-03T07:21:12;7.20;;;3.38;;
52798;SDS011;38667;42.872;74.622;2022-09-03T07:23:41;5.25;;;2.95;;
52798;SDS011;38667;42.872;74.622;2022-09-03T07:26:08;5.88;;;3.58;;
52798;SDS011;38667;42.872;74.622;2022-09-03T07:28:36;8.52;;;3.60;;
52798;SDS011;38667;42.872;74.622;2022-09-03T07:31:04;5.55;;;3.90;;
52798;SDS011;38667;42.872;74.622;2022-09-03T07:33:32;7.88;;;3.80;;
52798;SDS011;38667;42.872;74.622;2022-09-03T07:36:01;9.73;;;3.63;;
52798;SDS011;38667;42.872;74.622;2022-09-03T07:38:28;5.72;;;3.60;;
52798;SDS011;38667;42.872;74.622;2022-09-03T07:40:58;7.40;;;3.80;;
52798;SDS011;38667;42.872;74.622;2022-09-03T07:43:24;5.82;;;3.88;;
52798;SDS011;38667;42.872;74.622;2022-09-03T07:45:51;6.35;;;3.40;;
52798;SDS011;38667;42.872;74.622;2022-09-03T07:48:17;5.10;;;3.38;;
52798;SDS011;38667;42.872;74.622;2022-09-03T07:50:43;10.43;;;3.95;;
52798;SDS011;38667;42.872;74.622;2022-09-03T07:53:10;6.95;;;3.65;;
52798;SDS011;38667;42.872;74.622;2022-09-03T07:55:36;6.97;;;3.33;;
52798;SDS011;38667;42.872;74.622;2022-09-03T07:58:04;8.55;;;3.67;;
52798;SDS011;38667;42.872;74.622;2022-09-03T08:00:30;4.85;;;3.30;;
52798;SDS011;38667;42.872;74.622;2022-09-03T08:02:56;6.13;;;3.10;;
52798;SDS011;38667;42.872;74.622;2022-09-03T08:05:23;7.25;;;3.40;;
52798;SDS011;38667;42.872;74.622;2022-09-03T08:07:49;8.90;;;3.70;;
52798;SDS011;38667;42.872;74.622;2022-09-03T08:10:15;8.02;;;3.03;;
52798;SDS011;38667;42.872;74.622;2022-09-03T08:12:41;6.13;;;3.38;;
52798;SDS011;38667;42.872;74.622;2022-09-03T08:15:09;9.60;;;3.72;;
52798;SDS011;38667;42.872;74.622;2022-09-03T08:17:36;10.05;;;3.80;;
52798;SDS011;38667;42.872;74.622;2022-09-03T08:20:02;4.97;;;3.22;;
52798;SDS011;38667;42.872;74.622;2022-09-03T08:22:29;6.65;;;3.03;;
52798;SDS011;38667;42.872;74.622;2022-09-03T08:24:55;5.80;;;3.85;;
52798;SDS011;38667;42.872;74.622;2022-09-03T08:27:21;6.45;;;3.20;;
52798;SDS011;38667;42.872;74.622;2022-09-03T08:29:47;11.70;;;3.83;;
52798;SDS011;38667;42.872;74.622;2022-09-03T08:32:15;8.65;;;4.00;;
52798;SDS011;38667;42.872;74.622;2022-09-03T08:34:41;6.95;;;3.47;;
52798;SDS011;38667;42.872;74.622;2022-09-03T08:37:08;12.45;;;4.03;;
52798;SDS011;38667;42.872;74.622;2022-09-03T08:39:34;9.65;;;3.58;;
52798;SDS011;38667;42.872;74.622;2022-09-03T08:44:49;5.28;;;3.58;;
52798;SDS011;38667;42.872;74.622;2022-09-03T08:47:20;10.95;;;4.85;;
52798;SDS011;38667;42.872;74.622;2022-09-03T08:49:50;10.52;;;4.63;;
52798;SDS011;38667;42.872;74.622;2022-09-03T08:52:24;10.10;;;4.95;;
52798;SDS011;38667;42.872;74.622;2022-09-03T08:54:56;8.23;;;4.68;;
52798;SDS011;38667;42.872;74.622;2022-09-03T08:57:35;7.55;;;4.90;;
52798;SDS011;38667;42.872;74.622;2022-09-03T09:00:08;5.72;;;4.20;;
52798;SDS011;38667;42.872;74.622;2022-09-03T09:02:38;7.65;;;4.13;;
52798;SDS011;38667;42.872;74.622;2022-09-03T09:05:14;9.80;;;4.55;;
52798;SDS011;38667;42.872;74.622;2022-09-03T09:07:43;7.05;;;4.57;;
52798;SDS011;38667;42.872;74.622;2022-09-03T09:10:18;7.45;;;3.80;;
52798;SDS011;38667;42.872;74.622;2022-09-03T09:12:52;9.88;;;3.63;;
52798;SDS011;38667;42.872;74.622;2022-09-03T09:15:31;8.18;;;3.70;;
52798;SDS011;38667;42.872;74.622;2022-09-03T09:18:09;7.72;;;3.35;;
52798;SDS011;38667;42.872;74.622;2022-09-03T09:20:44;7.68;;;3.30;;
52798;SDS011;38667;42.872;74.622;2022-09-03T09:23:17;5.05;;;3.03;;
52798;SDS011;38667;42.872;74.622;2022-09-03T09:25:49;5.82;;;3.30;;
52798;SDS011;38667;42.872;74.622;2022-09-03T09:28:19;8.15;;;3.42;;
52798;SDS011;38667;42.872;74.622;2022-09-03T09:30:46;8.95;;;3.53;;
52798;SDS011;38667;42.872;74.622;2022-09-03T09:33:15;7.47;;;3.78;;
52798;SDS011;38667;42.872;74.622;2022-09-03T09:35:43;8.23;;;3.38;;
52798;SDS011;38667;42.872;74.622;2022-09-03T09:38:10;7.43;;;3.10;;
52798;SDS011;38667;42.872;74.622;2022-09-03T09:40:37;9.68;;;3.38;;
52798;SDS011;38667;42.872;74.622;2022-09-03T09:43:05;6.82;;;3.08;;
52798;SDS011;38667;42.872;74.622;2022-09-03T09:45:33;5.70;;;2.78;;
52798;SDS011;38667;42.872;74.622;2022-09-03T09:48:00;4.13;;;2.28;;
52798;SDS011;38667;42.872;74.622;2022-09-03T09:50:33;9.45;;;3.53;;
52798;SDS011;38667;42.872;74.622;2022-09-03T09:53:00;6.68;;;2.90;;
52798;SDS011;38667;42.872;74.622;2022-09-03T09:55:28;5.53;;;2.97;;
52798;SDS011;38667;42.872;74.622;2022-09-03T09:58:03;8.38;;;3.17;;
52798;SDS011;38667;42.872;74.622;2022-09-03T10:00:30;5.93;;;3.30;;
52798;SDS011;38667;42.872;74.622;2022-09-03T10:02:56;5.82;;;3.50;;
52798;SDS011;38667;42.872;74.622;2022-09-03T10:05:23;6.15;;;3.88;;
52798;SDS011;38667;42.872;74.622;2022-09-03T10:07:56;7.68;;;3.95;;
52798;SDS011;38667;42.872;74.622;2022-09-03T10:10:24;7.15;;;3.10;;
52798;SDS011;38667;42.872;74.622;2022-09-03T10:12:52;9.10;;;3.15;;
52798;SDS011;38667;42.872;74.622;2022-09-03T10:15:24;6.38;;;3.72;;
52798;SDS011;38667;42.872;74.622;2022-09-03T10:18:00;7.10;;;3.22;;
52798;SDS011;38667;42.872;74.622;2022-09-03T10:20:33;5.45;;;2.90;;
52798;SDS011;38667;42.872;74.622;2022-09-03T10:23:09;5.50;;;3.05;;
52798;SDS011;38667;42.872;74.622;2022-09-03T10:25:42;5.53;;;3.20;;
52798;SDS011;38667;42.872;74.622;2022-09-03T10:28:15;7.85;;;3.38;;
52798;SDS011;38667;42.872;74.622;2022-09-03T10:30:46;7.03;;;3.30;;
52798;SDS011;38667;42.872;74.622;2022-09-03T10:33:36;6.72;;;3.08;;
52798;SDS011;38667;42.872;74.622;2022-09-03T10:36:09;5.10;;;3.10;;
52798;SDS011;38667;42.872;74.622;2022-09-03T10:38:43;12.57;;;3.00;;
52798;SDS011;38667;42.872;74.622;2022-09-03T10:41:16;6.40;;;3.20;;
52798;SDS011;38667;42.872;74.622;2022-09-03T10:44:03;6.57;;;3.35;;
52798;SDS011;38667;42.872;74.622;2022-09-03T10:46:55;6.47;;;3.38;;
52798;SDS011;38667;42.872;74.622;2022-09-03T10:49:39;10.63;;;3.95;;
52798;SDS011;38667;42.872;74.622;2022-09-03T10:52:16;6.82;;;3.47;;
52798;SDS011;38667;42.872;74.622;2022-09-03T10:54:56;7.70;;;3.60;;
52798;SDS011;38667;42.872;74.622;2022-09-03T10:57:40;6.53;;;3.92;;
52798;SDS011;38667;42.872;74.622;2022-09-03T11:00:13;8.38;;;3.20;;
52798;SDS011;38667;42.872;74.622;2022-09-03T11:02:59;3.90;;;3.17;;
52798;SDS011;38667;42.872;74.622;2022-09-03T11:05:53;7.30;;;2.80;;
52798;SDS011;38667;42.872;74.622;2022-09-03T11:08:26;6.47;;;2.92;;
52798;SDS011;38667;42.872;74.622;2022-09-03T11:11:03;12.18;;;3.35;;
52798;SDS011;38667;42.872;74.622;2022-09-03T11:13:37;5.70;;;3.22;;
52798;SDS011;38667;42.872;74.622;2022-09-03T11:16:10;8.30;;;3.63;;
52798;SDS011;38667;42.872;74.622;2022-09-03T11:18:42;5.95;;;4.28;;
52798;SDS011;38667;42.872;74.622;2022-09-03T11:21:13;7.50;;;3.75;;
52798;SDS011;38667;42.872;74.622;2022-09-03T11:23:42;9.63;;;4.75;;
52798;SDS011;38667;42.872;74.622;2022-09-03T11:26:13;11.38;;;4.60;;
52798;SDS011;38667;42.872;74.622;2022-09-03T11:28:43;7.38;;;3.30;;
52798;SDS011;38667;42.872;74.622;2022-09-03T11:31:20;9.13;;;3.45;;
52798;SDS011;38667;42.872;74.622;2022-09-03T11:33:52;6.20;;;3.63;;
52798;SDS011;38667;42.872;74.622;2022-09-03T11:36:25;10.70;;;3.17;;
52798;SDS011;38667;42.872;74.622;2022-09-03T11:38:54;8.65;;;3.53;;
52798;SDS011;38667;42.872;74.622;2022-09-03T11:41:24;6.25;;;3.55;;
52798;SDS011;38667;42.872;74.622;2022-09-03T11:43:51;5.32;;;3.05;;
52798;SDS011;38667;42.872;74.622;2022-09-03T11:46:26;5.10;;;3.00;;
52798;SDS011;38667;42.872;74.622;2022-09-03T11:48:54;6.60;;;3.25;;
52798;SDS011;38667;42.872;74.622;2022-09-03T11:51:31;5.88;;;3.80;;
52798;SDS011;38667;42.872;74.622;2022-09-03T11:53:59;7.63;;;3.80;;
52798;SDS011;38667;42.872;74.622;2022-09-03T11:56:28;7.53;;;3.08;;
52798;SDS011;38667;42.872;74.622;2022-09-03T11:58:59;9.75;;;3.33;;
52798;SDS011;38667;42.872;74.622;2022-09-03T12:01:28;6.53;;;3.28;;
52798;SDS011;38667;42.872;74.622;2022-09-03T12:03:57;6.40;;;3.92;;
52798;SDS011;38667;42.872;74.622;2022-09-03T12:06:41;5.85;;;3.65;;
52798;SDS011;38667;42.872;74.622;2022-09-03T12:09:25;5.35;;;3.78;;
52798;SDS011;38667;42.872;74.622;2022-09-03T12:12:11;8.02;;;3.88;;
52798;SDS011;38667;42.872;74.622;2022-09-03T12:14:49;6.20;;;3.47;;
52798;SDS011;38667;42.872;74.622;2022-09-03T12:17:23;11.25;;;4.07;;
52798;SDS011;38667;42.872;74.622;2022-09-03T12:19:54;5.80;;;3.90;;
52798;SDS011;38667;42.872;74.622;2022-09-03T12:22:22;12.07;;;4.20;;
52798;SDS011;38667;42.872;74.622;2022-09-03T12:24:51;6.93;;;4.13;;
52798;SDS011;38667;42.872;74.622;2022-09-03T12:27:19;9.82;;;4.53;;
52798;SDS011;38667;42.872;74.622;2022-09-03T12:29:49;9.65;;;3.92;;
52798;SDS011;38667;42.872;74.622;2022-09-03T12:32:18;7.03;;;4.38;;
52798;SDS011;38667;42.872;74.622;2022-09-03T12:34:44;10.88;;;4.47;;
52798;SDS011;38667;42.872;74.622;2022-09-03T12:37:16;8.45;;;4.60;;
52798;SDS011;38667;42.872;74.622;2022-09-03T12:39:49;10.88;;;4.57;;
52798;SDS011;38667;42.872;74.622;2022-09-03T12:42:19;10.00;;;4.32;;
52798;SDS011;38667;42.872;74.622;2022-09-03T12:44:50;13.98;;;5.15;;
52798;SDS011;38667;42.872;74.622;2022-09-03T12:47:17;11.35;;;4.28;;
52798;SDS011;38667;42.872;74.622;2022-09-03T12:49:46;12.73;;;5.20;;
52798;SDS011;38667;42.872;74.622;2022-09-03T12:52:15;15.02;;;4.80;;
52798;SDS011;38667;42.872;74.622;2022-09-03T12:54:46;15.52;;;5.00;;
52798;SDS011;38667;42.872;74.622;2022-09-03T12:57:20;17.25;;;5.30;;
52798;SDS011;38667;42.872;74.622;2022-09-03T12:59:49;9.40;;;5.22;;
52798;SDS011;38667;42.872;74.622;2022-09-03T13:02:19;14.13;;;5.97;;
52798;SDS011;38667;42.872;74.622;2022-09-03T13:04:50;13.85;;;6.03;;
52798;SDS011;38667;42.872;74.622;2022-09-03T13:07:20;17.10;;;6.28;;
52798;SDS011;38667;42.872;74.622;2022-09-03T13:09:50;16.95;;;7.35;;
52798;SDS011;38667;42.872;74.622;2022-09-03T13:12:22;15.88;;;7.53;;
52798;SDS011;38667;42.872;74.622;2022-09-03T13:14:54;20.65;;;7.63;;
52798;SDS011;38667;42.872;74.622;2022-09-03T13:17:26;18.00;;;8.30;;
52798;SDS011;38667;42.872;74.622;2022-09-03T13:20:10;17.00;;;8.10;;
52798;SDS011;38667;42.872;74.622;2022-09-03T13:22:49;15.20;;;8.07;;
52798;SDS011;38667;42.872;74.622;2022-09-03T13:25:33;15.07;;;8.23;;
52798;SDS011;38667;42.872;74.622;2022-09-03T13:28:09;18.80;;;8.98;;
52798;SDS011;38667;42.872;74.622;2022-09-03T13:30:47;16.25;;;8.43;;
52798;SDS011;38667;42.872;74.622;2022-09-03T13:33:20;20.92;;;8.00;;
52798;SDS011;38667;42.872;74.622;2022-09-03T13:35:50;18.40;;;8.13;;
52798;SDS011;38667;42.872;74.622;2022-09-03T13:38:24;16.23;;;8.38;;
52798;SDS011;38667;42.872;74.622;2022-09-03T13:40:57;27.65;;;7.75;;
52798;SDS011;38667;42.872;74.622;2022-09-03T13:43:30;20.90;;;8.18;;
52798;SDS011;38667;42.872;74.622;2022-09-03T13:46:00;16.08;;;7.68;;
52798;SDS011;38667;42.872;74.622;2022-09-03T13:48:31;20.70;;;7.43;;
52798;SDS011;38667;42.872;74.622;2022-09-03T13:51:03;17.05;;;8.10;;
52798;SDS011;38667;42.872;74.622;2022-09-03T13:53:38;19.02;;;7.82;;
52798;SDS011;38667;42.872;74.622;2022-09-03T13:56:15;17.67;;;7.93;;
52798;SDS011;38667;42.872;74.622;2022-09-03T13:58:49;19.70;;;8.05;;
52798;SDS011;38667;42.872;74.622;2022-09-03T14:01:24;12.13;;;6.88;;
52798;SDS011;38667;42.872;74.622;2022-09-03T14:03:58;17.77;;;7.15;;
52798;SDS011;38667;42.872;74.622;2022-09-03T14:06:32;15.07;;;7.80;;
52798;SDS011;38667;42.872;74.622;2022-09-03T14:09:08;23.38;;;7.65;;
52798;SDS011;38667;42.872;74.622;2022-09-03T14:11:48;17.20;;;8.18;;
52798;SDS011;38667;42.872;74.622;2022-09-03T14:14:27;26.10;;;8.70;;
52798;SDS011;38667;42.872;74.622;2022-09-03T14:17:04;18.92;;;8.10;;
52798;SDS011;38667;42.872;74.622;2022-09-03T14:19:40;23.48;;;8.55;;
52798;SDS011;38667;42.872;74.622;2022-09-03T14:22:13;15.35;;;7.35;;
52798;SDS011;38667;42.872;74.622;2022-09-03T14:24:45;24.33;;;10.18;;
52798;SDS011;38667;42.872;74.622;2022-09-03T14:27:21;26.92;;;8.80;;
52798;SDS011;38667;42.872;74.622;2022-09-03T14:29:52;18.65;;;8.27;;
52798;SDS011;38667;42.872;74.622;2022-09-03T14:32:29;24.38;;;8.68;;
52798;SDS011;38667;42.872;74.622;2022-09-03T14:38:22;26.13;;;10.02;;
52798;SDS011;38667;42.872;74.622;2022-09-03T14:41:41;20.60;;;9.07;;
52798;SDS011;38667;42.872;74.622;2022-09-03T14:44:37;26.85;;;9.15;;
52798;SDS011;38667;42.872;74.622;2022-09-03T14:47:27;29.63;;;10.52;;
52798;SDS011;38667;42.872;74.622;2022-09-03T14:50:08;33.05;;;10.38;;
52798;SDS011;38667;42.872;74.622;2022-09-03T14:53:04;28.08;;;10.30;;
52798;SDS011;38667;42.872;74.622;2022-09-03T14:55:57;29.45;;;12.13;;
52798;SDS011;38667;42.872;74.622;2022-09-03T14:58:41;27.65;;;10.80;;
52798;SDS011;38667;42.872;74.622;2022-09-03T15:01:18;35.35;;;12.88;;